Time;durP1;ratioP1;P1;durP2;ratioP2;P2;SDS_P1;SDS_P2;PMS_P1;PMS_P2;Temp;Humidity;BMP_temperature;BMP_pressure;BME280_temperature;BME280_humidity;BME280_pressure;Samples;Min_cycle;Max_cycle;Signal;HPM_P1;HPM_P2
2022/07/15 00:01:52;;;;;;;1999.90;999.90;;;;;;;23.38;86.75;95525.75;5010791;28;20200;-57
2022/07/15 00:04:17;;;;;;;1999.90;999.90;;;;;;;23.35;86.65;95544.22;5011157;28;20202;-57
2022/07/15 00:06:43;;;;;;;1999.90;999.90;;;;;;;23.37;86.28;95543.72;5010249;28;20298;-57
2022/07/15 00:09:08;;;;;;;1999.90;999.90;;;;;;;23.38;86.95;95536.91;4994577;28;20203;-57
2022/07/15 00:11:34;;;;;;;1999.90;999.90;;;;;;;23.34;89.71;95514.03;5010743;28;20191;-59
2022/07/15 00:14:00;;;;;;;1999.90;999.90;;;;;;;23.11;92.67;95506.53;5010541;28;20202;-57
2022/07/15 00:16:26;;;;;;;1999.90;999.90;;;;;;;23.07;90.12;95514.31;5010348;28;20191;-57
2022/07/15 00:18:51;;;;;;;1999.90;999.90;;;;;;;23.13;88.95;95517.97;4994129;28;20612;-57
2022/07/15 00:21:16;;;;;;;1999.90;999.90;;;;;;;23.13;88.64;95515.19;5010610;28;20190;-59
2022/07/15 00:23:42;;;;;;;1999.90;999.90;;;;;;;23.06;88.78;95502.41;5010089;28;20192;-59
2022/07/15 00:26:07;;;;;;;1999.90;999.90;;;;;;;23.14;88.75;95514.69;5010143;28;20290;-59
2022/07/15 00:28:33;;;;;;;1999.90;999.90;;;;;;;23.15;89.21;95518.25;5010702;28;20278;-59
2022/07/15 00:30:58;;;;;;;1999.90;999.90;;;;;;;23.05;89.32;95519.63;4994434;28;20191;-59
2022/07/15 00:33:24;;;;;;;1999.90;999.90;;;;;;;23.15;88.89;95519.03;5010154;28;20209;-59
2022/07/15 00:35:49;;;;;;;1999.90;999.90;;;;;;;23.13;89.60;95512.41;5010234;28;20187;-60
2022/07/15 00:38:15;;;;;;;1999.90;999.90;;;;;;;23.15;93.68;95530.16;5009398;28;20188;-59
2022/07/15 00:40:47;;;;;;;1999.90;999.90;;;;;;;22.94;100.00;95494.34;5010119;28;20188;-59
2022/07/15 00:43:16;;;;;;;1999.90;999.90;;;;;;;22.33;100.00;95448.69;5010846;28;20190;-61
2022/07/15 00:45:41;;;;;;;1999.90;999.90;;;;;;;21.79;100.00;95410.19;5010265;28;20215;-61
2022/07/15 00:48:06;;;;;;;1999.90;999.90;;;;;;;21.20;100.00;95370.25;5010087;28;20234;-61
2022/07/15 00:50:32;;;;;;;1999.90;999.90;;;;;;;20.86;100.00;95345.75;5009939;28;20204;-61
2022/07/15 00:53:05;;;;;;;1999.90;999.90;;;;;;;20.65;100.00;95307.91;5009657;28;20194;-61
2022/07/15 00:55:32;;;;;;;1999.90;999.90;;;;;;;20.48;100.00;95265.16;5010798;28;20175;-58
2022/07/15 00:58:04;;;;;;;1999.90;999.90;;;;;;;20.39;100.00;95265.19;5010349;28;20215;-58
2022/07/15 01:00:31;;;;;;;1999.90;999.90;;;;;;;20.38;100.00;95254.56;5009562;28;20199;-58
2022/07/15 01:02:58;;;;;;;1999.90;999.90;;;;;;;20.19;100.00;95256.66;5010187;28;20188;-62
2022/07/15 01:05:25;;;;;;;1999.90;999.90;;;;;;;20.06;100.00;95236.63;5009952;28;20199;-64
2022/07/15 01:07:50;;;;;;;1999.90;999.90;;;;;;;19.80;100.00;95257.66;5009714;28;20218;-64
2022/07/15 01:10:17;;;;;;;1999.90;999.90;;;;;;;19.67;100.00;95171.19;5009726;28;20235;-64
2022/07/15 01:12:46;;;;;;;1999.90;999.90;;;;;;;19.60;100.00;95121.66;4993425;28;20207;-64
2022/07/15 01:15:12;;;;;;;1999.90;999.90;;;;;;;19.49;100.00;95113.81;4993513;28;20241;-61
2022/07/15 01:17:38;;;;;;;1999.90;999.90;;;;;;;19.40;100.00;95093.69;5010171;28;20188;-61
2022/07/15 01:20:04;;;;;;;1999.90;999.90;;;;;;;19.36;100.00;95004.47;5010326;28;20183;-61
2022/07/15 01:22:30;;;;;;;1999.90;999.90;;;;;;;19.35;100.00;94955.88;5009571;28;20234;-65
2022/07/15 01:24:55;;;;;;;1999.90;999.90;;;;;;;19.32;100.00;94901.41;5009634;28;20184;-64
2022/07/15 01:27:21;;;;;;;1999.90;999.90;;;;;;;19.34;100.00;94821.41;5009686;28;20294;-63
2022/07/15 01:29:46;;;;;;;1999.90;999.90;;;;;;;19.34;100.00;94760.47;5010217;28;20211;-62
2022/07/15 01:32:11;;;;;;;1999.90;999.90;;;;;;;19.41;100.00;94724.84;5010086;28;20195;-62
2022/07/15 01:34:37;;;;;;;1999.90;999.90;;;;;;;19.41;100.00;94707.44;4993153;28;20248;-62
2022/07/15 01:37:02;;;;;;;1999.90;999.90;;;;;;;19.20;100.00;94703.03;5009438;28;20595;-62
2022/07/15 01:39:28;;;;;;;1999.90;999.90;;;;;;;18.97;100.00;94725.97;4993084;28;20267;-63
2022/07/15 01:41:53;;;;;;;1999.90;999.90;;;;;;;18.95;100.00;94714.63;5009599;28;20188;-62
2022/07/15 01:44:19;;;;;;;1999.90;999.90;;;;;;;18.93;100.00;94711.56;5009335;28;20191;-63
2022/07/15 01:46:44;;;;;;;1999.90;999.90;;;;;;;18.98;100.00;94680.47;4992962;28;20220;-62
2022/07/15 01:49:22;;;;;;;1999.90;999.90;;;;;;;19.07;100.00;94641.63;5010473;28;20192;-62
2022/07/15 01:51:48;;;;;;;1999.90;999.90;;;;;;;19.16;100.00;94608.31;5013540;28;20222;-64
2022/07/15 01:54:14;;;;;;;1999.90;999.90;;;;;;;19.15;100.00;94617.84;5013446;28;20200;-62
2022/07/15 01:56:39;;;;;;;1999.90;999.90;;;;;;;19.16;100.00;94608.31;4996166;28;20191;-62
2022/07/15 01:59:05;;;;;;;1999.90;999.90;;;;;;;19.17;100.00;94598.78;5012639;28;20200;-62
2022/07/15 02:01:31;;;;;;;1999.90;999.90;;;;;;;19.21;100.00;94588.25;5012325;28;20202;-62
2022/07/15 02:03:57;;;;;;;1999.90;999.90;;;;;;;19.26;100.00;94557.16;5012361;28;20215;-62
2022/07/15 02:06:22;;;;;;;1999.90;999.90;;;;;;;19.18;100.00;94601.06;4996075;28;20286;-62
2022/07/15 02:08:48;;;;;;;1999.90;999.90;;;;;;;19.24;100.00;94615.00;5012414;28;20220;-63
2022/07/15 02:11:13;;;;;;;1999.90;999.90;;;;;;;19.27;100.00;94647.31;5012554;28;20203;-62
2022/07/15 02:13:38;;;;;;;1999.90;999.90;;;;;;;19.31;100.00;94689.41;5012428;28;20215;-62
2022/07/15 02:16:04;;;;;;;1999.90;999.90;;;;;;;19.32;100.00;94757.41;5012619;28;20192;-62
2022/07/15 02:18:30;;;;;;;1999.90;999.90;;;;;;;19.28;100.00;94803.91;5012931;28;20210;-62
2022/07/15 02:20:55;;;;;;;1999.90;999.90;;;;;;;19.25;100.00;94827.00;5012667;28;20180;-62
2022/07/15 02:23:21;;;;;;;1999.90;999.90;;;;;;;19.31;100.00;94836.94;5012350;28;20184;-62
2022/07/15 02:25:46;;;;;;;1999.90;999.90;;;;;;;19.32;100.00;94899.41;5012004;28;20303;-62
2022/07/15 02:28:13;;;;;;;1999.90;999.90;;;;;;;19.30;100.00;94870.63;5012166;28;20385;-65
2022/07/15 02:30:41;;;;;;;1999.90;999.90;;;;;;;19.26;100.00;94947.59;5012621;28;20203;-65
2022/07/15 02:33:07;;;;;;;1999.90;999.90;;;;;;;19.21;100.00;94975.91;5012183;28;20188;-65
2022/07/15 02:35:32;;;;;;;1999.90;999.90;;;;;;;19.16;100.00;95068.66;5011764;28;20282;-65
2022/07/15 02:37:59;;;;;;;1999.90;999.90;;;;;;;19.15;100.00;95147.44;5012268;28;20215;-64
2022/07/15 02:40:25;;;;;;;1999.90;999.90;;;;;;;19.07;100.00;95137.16;5012209;28;20192;-65
2022/07/15 02:42:52;;;;;;;1999.90;999.90;;;;;;;18.95;100.00;95121.50;4996058;28;20200;-65
2022/07/15 02:45:19;;;;;;;1999.90;999.90;;;;;;;18.79;100.00;95164.09;5011954;28;20242;-64
2022/07/15 02:47:46;;;;;;;1999.90;999.90;;;;;;;18.87;100.00;95159.78;5011733;28;20246;-64
2022/07/15 02:50:12;;;;;;;1999.90;999.90;;;;;;;18.81;100.00;95225.28;5011729;28;20641;-65
2022/07/15 02:52:38;;;;;;;1999.90;999.90;;;;;;;18.87;100.00;95242.03;5012186;28;20199;-64
2022/07/15 02:55:05;;;;;;;1999.90;999.90;;;;;;;18.88;100.00;95235.28;5011683;28;20663;-64
2022/07/15 02:57:30;;;;;;;1999.90;999.90;;;;;;;18.82;100.00;95188.06;5012005;28;20195;-64
2022/07/15 02:59:55;;;;;;;1999.90;999.90;;;;;;;18.80;100.00;95184.22;5011553;28;20274;-64
2022/07/15 03:02:21;;;;;;;1999.90;999.90;;;;;;;18.76;100.00;95200.22;5011559;28;20200;-64
2022/07/15 03:04:47;;;;;;;1999.90;999.90;;;;;;;18.58;100.00;95222.34;5011574;28;20225;-64
2022/07/15 03:07:12;;;;;;;1999.90;999.90;;;;;;;18.54;100.00;95210.66;5012118;28;20215;-64
2022/07/15 03:09:38;;;;;;;1999.90;999.90;;;;;;;18.50;100.00;95237.69;5011353;28;20208;-64
2022/07/15 03:12:03;;;;;;;1999.90;999.90;;;;;;;18.29;100.00;95283.50;4994975;28;20245;-64
2022/07/15 03:14:29;;;;;;;1999.90;999.90;;;;;;;18.09;100.00;95302.50;4995018;28;20191;-66
2022/07/15 03:16:55;;;;;;;1999.90;999.90;;;;;;;18.10;100.00;95297.75;5011328;28;20195;-64
2022/07/15 03:19:20;;;;;;;1999.90;999.90;;;;;;;18.14;100.00;95276.25;4995094;28;20172;-63
2022/07/15 03:21:46;;;;;;;1999.90;999.90;;;;;;;18.16;100.00;95271.03;4994839;28;20242;-64
2022/07/15 03:24:13;;;;;;;1999.90;999.90;;;;;;;18.14;100.00;95276.25;5011189;28;20195;-64
2022/07/15 03:26:38;;;;;;;1999.90;999.90;;;;;;;18.03;100.00;95289.72;5011348;28;20283;-64
2022/07/15 03:29:05;;;;;;;1999.90;999.90;;;;;;;18.11;100.00;95299.28;5011101;28;20198;-63
2022/07/15 03:31:30;;;;;;;1999.90;999.90;;;;;;;18.04;100.00;95297.56;5010626;28;20273;-64
2022/07/15 03:33:56;;;;;;;1999.90;999.90;;;;;;;17.85;100.00;95300.69;5011151;28;20191;-64
2022/07/15 03:36:22;;;;;;;1999.90;999.90;;;;;;;17.82;100.00;95304.34;5011166;28;20192;-64
2022/07/15 03:38:51;;;;;;;1999.90;999.90;;;;;;;17.91;100.00;95291.34;5010976;28;20260;-64
2022/07/15 03:41:16;;;;;;;1999.90;999.90;;;;;;;17.90;100.00;95294.56;5011059;28;20188;-63
2022/07/15 03:43:42;;;;;;;1999.90;999.90;;;;;;;17.79;100.00;95311.53;4995044;28;20246;-72
2022/07/15 03:46:07;;;;;;;1999.90;999.90;;;;;;;17.81;100.00;95313.84;5010888;28;20207;-74
2022/07/15 03:48:32;;;;;;;1999.90;999.90;;;;;;;17.75;100.00;95315.66;5010625;28;20258;-73
2022/07/15 03:50:58;;;;;;;1999.90;999.90;;;;;;;17.72;100.00;95306.28;5010805;28;20267;-73
2022/07/15 03:53:23;;;;;;;1999.90;999.90;;;;;;;17.71;100.00;95303.97;5010923;28;20211;-72
2022/07/15 03:55:48;;;;;;;1999.90;999.90;;;;;;;17.72;100.00;95316.56;5011301;28;20187;-71
2022/07/15 03:58:14;;;;;;;1999.90;999.90;;;;;;;17.66;100.00;95323.91;5011073;28;20211;-70
2022/07/15 04:00:39;;;;;;;1999.90;999.90;;;;;;;17.71;100.00;95326.84;5010686;28;20187;-70
2022/07/15 04:03:05;;;;;;;1999.90;999.90;;;;;;;17.78;100.00;95314.75;5011062;28;20194;-70
2022/07/15 04:05:30;;;;;;;1999.90;999.90;;;;;;;17.87;100.00;95320.31;5010817;28;20254;-71
2022/07/15 04:07:55;;;;;;;1999.90;999.90;;;;;;;17.99;100.00;95330.53;5010496;28;20184;-71
2022/07/15 04:10:21;;;;;;;1999.90;999.90;;;;;;;17.94;100.00;95329.13;5010478;28;20291;-71
2022/07/15 04:12:46;;;;;;;1999.90;999.90;;;;;;;18.06;100.00;95324.75;5009403;28;20191;-70
2022/07/15 04:15:14;;;;;;;1999.90;999.90;;;;;;;18.18;100.00;95323.88;5010833;28;20219;-72
2022/07/15 04:17:41;;;;;;;1999.90;999.90;;;;;;;18.13;100.00;95324.47;5010318;28;20215;-70
2022/07/15 04:20:07;;;;;;;1999.90;999.90;;;;;;;18.18;100.00;95321.88;5010369;28;20179;-71
2022/07/15 04:22:44;;;;;;;1999.90;999.90;;;;;;;18.15;100.00;95333.84;5010851;28;20195;-72
2022/07/15 04:25:13;;;;;;;1999.90;999.90;;;;;;;18.13;100.00;95350.13;5010980;28;20187;-72
2022/07/15 04:27:39;;;;;;;1999.90;999.90;;;;;;;18.19;100.00;95353.06;5010556;28;20211;-72
2022/07/15 04:30:05;;;;;;;1999.90;999.90;;;;;;;18.20;100.00;95373.94;5010508;28;20195;-72
2022/07/15 04:32:31;;;;;;;1999.90;999.90;;;;;;;18.14;100.00;95373.00;5010285;28;20200;-70
2022/07/15 04:34:56;;;;;;;1999.90;999.90;;;;;;;18.18;100.00;95371.63;5010080;28;20191;-70
2022/07/15 04:37:21;;;;;;;1999.90;999.90;;;;;;;18.02;100.00;95384.91;5010300;28;20251;-71
2022/07/15 04:39:47;;;;;;;1999.90;999.90;;;;;;;18.08;100.00;95385.88;5009980;28;20192;-71
2022/07/15 04:42:13;;;;;;;1999.90;999.90;;;;;;;18.16;100.00;95385.16;5010208;28;20187;-71
2022/07/15 04:44:39;;;;;;;1999.90;999.90;;;;;;;18.12;100.00;95390.03;5010061;28;20192;-70
2022/07/15 04:47:04;;;;;;;1999.90;999.90;;;;;;;18.23;100.00;95395.16;5009683;28;20216;-68
2022/07/15 04:52:15;;;;;;;1999.90;999.90;;;;;;;18.58;100.00;95399.38;4995013;28;20206;-67
2022/07/15 04:54:40;;;;;;;1999.90;999.90;;;;;;;19.36;100.00;95414.41;5009918;28;20199;-68
2022/07/15 04:57:06;;;;;;;1999.90;999.90;;;;;;;20.09;100.00;95431.81;5009806;28;20187;-68
2022/07/15 04:59:32;;;;;;;1999.90;999.90;;;;;;;20.66;100.00;95467.69;4993393;28;20198;-69
2022/07/15 05:01:58;;;;;;;1999.90;999.90;;;;;;;21.14;100.00;95494.41;5010201;28;20192;-69
2022/07/15 05:04:24;;;;;;;1999.90;999.90;;;;;;;21.65;100.00;95506.19;5009729;28;20192;-69
2022/07/15 05:06:49;;;;;;;1999.90;999.90;;;;;;;22.19;100.00;95533.66;5009801;28;20269;-68
2022/07/15 05:09:14;;;;;;;1999.90;999.90;;;;;;;21.89;100.00;95534.03;5009729;28;20207;-71
2022/07/15 05:11:40;;;;;;;1999.90;999.90;;;;;;;21.66;100.00;95532.75;5009521;28;20219;-70
2022/07/15 05:14:05;;;;;;;1999.90;999.90;;;;;;;22.16;100.00;95545.75;5009359;28;20191;-67
2022/07/15 05:16:31;;;;;;;1999.90;999.90;;;;;;;22.56;100.00;95550.09;5009714;28;20211;-68
2022/07/15 05:18:57;;;;;;;1999.90;999.90;;;;;;;22.54;100.00;95544.25;5009404;28;20207;-60
2022/07/15 05:21:22;;;;;;;1999.90;999.90;;;;;;;22.14;100.00;95551.03;4993084;28;20202;-60
2022/07/15 05:23:47;;;;;;;1999.90;999.90;;;;;;;21.97;100.00;95555.44;5009881;28;20223;-70
2022/07/15 05:26:13;;;;;;;1999.90;999.90;;;;;;;22.11;100.00;95560.31;5013276;28;20242;-69
2022/07/15 05:28:39;;;;;;;1999.90;999.90;;;;;;;22.11;100.00;95565.13;5012663;28;20227;-68
2022/07/15 05:31:05;;;;;;;1999.90;999.90;;;;;;;21.67;100.00;95556.53;5012856;28;20237;-68
2022/07/15 05:33:30;;;;;;;1999.90;999.90;;;;;;;21.20;100.00;95561.22;5012778;28;20188;-69
2022/07/15 05:35:56;;;;;;;1999.90;999.90;;;;;;;21.38;100.00;95563.94;4996927;28;20196;-67
2022/07/15 05:38:21;;;;;;;1999.90;999.90;;;;;;;22.26;100.00;95569.47;5012706;28;20198;-69
2022/07/15 05:40:47;;;;;;;1999.90;999.90;;;;;;;21.75;100.00;95573.69;5012409;28;20199;-67
2022/07/15 05:43:12;;;;;;;1999.90;999.90;;;;;;;22.66;100.00;95587.78;5012105;28;20341;-70
2022/07/15 05:45:37;;;;;;;1999.90;999.90;;;;;;;22.48;100.00;95597.78;5012976;28;20187;-70
2022/07/15 05:48:03;;;;;;;1999.90;999.90;;;;;;;22.82;100.00;95601.25;5012536;28;20198;-67
2022/07/15 05:50:28;;;;;;;1999.90;999.90;;;;;;;21.54;100.00;95606.03;5012584;28;20180;-67
2022/07/15 05:52:54;;;;;;;1999.90;999.90;;;;;;;21.68;100.00;95605.31;5012662;28;20192;-67
2022/07/15 05:55:20;;;;;;;1999.90;999.90;;;;;;;21.26;100.00;95587.88;5012901;28;20306;-66
2022/07/15 05:57:45;;;;;;;1999.90;999.90;;;;;;;21.63;100.00;95597.63;4996358;28;20264;-67
2022/07/15 06:00:12;;;;;;;1999.90;999.90;;;;;;;21.59;100.00;95613.72;5012594;28;20192;-67
2022/07/15 06:02:37;;;;;;;1999.90;999.90;;;;;;;21.29;100.00;95609.19;5012324;28;20184;-74
2022/07/15 06:05:03;;;;;;;1999.90;999.90;;;;;;;21.40;100.00;95606.69;5012209;28;20274;-70
2022/07/15 06:07:28;;;;;;;1999.90;999.90;;;;;;;21.41;100.00;95616.56;5012133;28;20204;-70
2022/07/15 06:09:53;;;;;;;1999.90;999.90;;;;;;;21.12;100.00;95619.09;5012138;28;20262;-71
2022/07/15 06:12:19;;;;;;;1999.90;999.90;;;;;;;20.84;100.00;95625.91;5012367;28;20207;-71
2022/07/15 06:14:44;;;;;;;1999.90;999.90;;;;;;;21.31;100.00;95615.03;5011932;28;20188;-71
2022/07/15 06:17:09;;;;;;;1999.90;999.90;;;;;;;21.00;100.00;95628.38;5012531;28;20230;-70
2022/07/15 06:19:35;;;;;;;1999.90;999.90;;;;;;;21.18;100.00;95627.56;5011906;28;20196;-69
2022/07/15 06:22:00;;;;;;;1999.90;999.90;;;;;;;22.74;100.00;95634.28;4995725;28;20212;-74
2022/07/15 06:24:26;;;;;;;1999.90;999.90;;;;;;;24.40;94.53;95649.06;5011965;28;20191;-73
2022/07/15 06:26:52;;;;;;;1999.90;999.90;;;;;;;25.46;82.60;95665.88;5011873;28;20203;-73
2022/07/15 06:29:18;;;;;;;1999.90;999.90;;;;;;;24.04;79.68;95664.28;5011914;28;20198;-69
2022/07/15 06:31:43;;;;;;;1999.90;999.90;;;;;;;23.38;85.86;95654.75;5011933;28;20203;-66
2022/07/15 06:34:09;;;;;;;1999.90;999.90;;;;;;;23.31;88.06;95654.41;5011888;28;20208;-65
2022/07/15 06:36:34;;;;;;;1999.90;999.90;;;;;;;24.12;85.46;95653.47;5010941;28;20195;-67
2022/07/15 06:39:00;;;;;;;1999.90;999.90;;;;;;;25.19;74.45;95664.31;5012013;28;20191;-68
2022/07/15 06:41:25;;;;;;;1999.90;999.90;;;;;;;24.13;79.82;95660.59;5012219;28;20279;-68
2022/07/15 06:43:51;;;;;;;1999.90;999.90;;;;;;;23.71;86.14;95665.75;5011867;28;20194;-66
2022/07/15 06:46:16;;;;;;;1999.90;999.90;;;;;;;23.13;84.67;95654.53;5011824;28;20203;-67
2022/07/15 06:48:42;;;;;;;1999.90;999.90;;;;;;;22.92;86.70;95652.84;5012144;28;20180;-67
2022/07/15 06:51:08;;;;;;;1999.90;999.90;;;;;;;22.78;89.08;95657.16;5011923;28;20196;-67
2022/07/15 06:53:33;;;;;;;1999.90;999.90;;;;;;;23.20;89.23;95659.72;5011831;28;20226;-68
2022/07/15 06:55:58;;;;;;;1999.90;999.90;;;;;;;23.80;84.21;95657.25;5011675;28;20194;-68
2022/07/15 06:58:24;;;;;;;1999.90;999.90;;;;;;;23.69;80.19;95668.22;5011706;28;20286;-67
2022/07/15 07:00:49;;;;;;;1999.90;999.90;;;;;;;23.26;81.55;95668.97;5011404;28;20219;-67
2022/07/15 07:03:15;;;;;;;1999.90;999.90;;;;;;;23.70;78.55;95676.13;5011521;28;20219;-68
2022/07/15 07:05:40;;;;;;;1999.90;999.90;;;;;;;22.98;77.48;95671.22;5011551;28;20202;-67
2022/07/15 07:08:06;;;;;;;1999.90;999.90;;;;;;;22.69;80.60;95675.94;5011289;28;20254;-67
2022/07/15 07:10:32;;;;;;;1999.90;999.90;;;;;;;23.20;79.88;95679.25;5011820;28;20207;-67
2022/07/15 07:12:58;;;;;;;1999.90;999.90;;;;;;;24.29;77.26;95676.84;5011051;28;20184;-67
2022/07/15 07:15:24;;;;;;;1999.90;999.90;;;;;;;24.26;74.13;95688.97;5011381;28;20223;-66
2022/07/15 07:17:51;;;;;;;1999.90;999.90;;;;;;;25.92;68.11;95674.97;5011053;28;20283;-68
2022/07/15 07:20:17;;;;;;;1999.90;999.90;;;;;;;26.66;59.94;95682.16;4995466;28;20184;-67
2022/07/15 07:22:42;;;;;;;1999.90;999.90;;;;;;;26.39;61.25;95680.69;5011725;28;20234;-67
2022/07/15 07:25:08;;;;;;;1999.90;999.90;;;;;;;27.15;58.40;95685.19;5011146;28;20176;-66
2022/07/15 07:27:33;;;;;;;1999.90;999.90;;;;;;;28.91;50.86;95684.53;5011035;28;20270;-65
2022/07/15 07:30:01;;;;;;;1999.90;999.90;;;;;;;29.28;49.56;95689.78;4995122;28;20180;-67
2022/07/15 07:32:27;;;;;;;1999.90;999.90;;;;;;;30.28;43.41;95693.53;5011508;28;20192;-65
2022/07/15 07:34:52;;;;;;;1999.90;999.90;;;;;;;27.89;47.29;95694.84;5010993;28;20187;-67
2022/07/15 07:37:18;;;;;;;1999.90;999.90;;;;;;;26.24;56.29;95696.09;5011210;28;20198;-66
2022/07/15 07:39:43;;;;;;;1999.90;999.90;;;;;;;27.42;53.50;95687.34;4994658;28;20188;-66
2022/07/15 07:42:09;;;;;;;1999.90;999.90;;;;;;;26.37;53.93;95688.06;5011339;28;20188;-67
2022/07/15 07:44:34;;;;;;;1999.90;999.90;;;;;;;25.90;58.15;95692.25;5010603;28;20191;-68
2022/07/15 07:47:00;;;;;;;1999.90;999.90;;;;;;;26.38;58.32;95684.75;5010403;28;20212;-67
2022/07/15 07:49:26;;;;;;;1999.90;999.90;;;;;;;25.61;58.58;95689.69;5010651;28;20187;-63
2022/07/15 07:51:54;;;;;;;1999.90;999.90;;;;;;;24.77;65.81;95694.81;5011216;28;20196;-65
2022/07/15 07:54:21;;;;;;;1999.90;999.90;;;;;;;25.03;64.28;95678.88;5010968;28;20198;-69
2022/07/15 07:56:47;;;;;;;1999.90;999.90;;;;;;;26.67;57.25;95667.66;5010942;28;20188;-68
2022/07/15 07:59:13;;;;;;;1999.90;999.90;;;;;;;28.62;50.81;95673.13;5010416;28;20179;-66
2022/07/15 08:01:38;;;;;;;1999.90;999.90;;;;;;;28.34;50.11;95670.34;5010967;28;20187;-67
2022/07/15 08:04:04;;;;;;;1999.90;999.90;;;;;;;29.12;45.97;95671.69;4994424;28;20195;-66
2022/07/15 08:06:29;;;;;;;1999.90;999.90;;;;;;;30.46;41.69;95673.13;4994282;28;20203;-69
2022/07/15 08:08:55;;;;;;;1999.90;999.90;;;;;;;28.62;47.22;95673.13;5010550;28;20203;-68
2022/07/15 08:11:20;;;;;;;1999.90;999.90;;;;;;;28.50;46.76;95671.59;4994404;28;20188;-67
2022/07/15 08:13:46;;;;;;;1999.90;999.90;;;;;;;29.16;44.96;95672.19;5010458;28;20203;-68
2022/07/15 08:16:11;;;;;;;1999.90;999.90;;;;;;;28.73;44.65;95673.09;5010625;28;20183;-68
2022/07/15 08:18:37;;;;;;;1999.90;999.90;;;;;;;29.06;43.64;95678.63;5010757;28;20175;-68
2022/07/15 08:21:03;;;;;;;1999.90;999.90;;;;;;;29.36;44.59;95657.00;5011005;28;20254;-67
2022/07/15 08:23:32;;;;;;;1999.90;999.90;;;;;;;28.96;46.02;95663.28;5010717;28;20188;-68
2022/07/15 08:25:58;;;;;;;1999.90;999.90;;;;;;;27.44;48.64;95673.56;5010355;28;20196;-68
2022/07/15 08:28:24;;;;;;;1999.90;999.90;;;;;;;29.39;44.66;95655.97;5010881;28;20211;-68
2022/07/15 08:30:50;;;;;;;1999.90;999.90;;;;;;;30.12;41.78;95664.16;5010626;28;20180;-68
2022/07/15 08:33:16;;;;;;;1999.90;999.90;;;;;;;28.92;42.73;95668.44;5010231;28;20214;-67
2022/07/15 08:35:42;;;;;;;1999.90;999.90;;;;;;;30.39;40.65;95668.06;4993759;28;20281;-68
2022/07/15 08:38:09;;;;;;;1999.90;999.90;;;;;;;30.68;39.42;95664.44;5009903;28;20175;-67
2022/07/15 08:40:35;;;;;;;1999.90;999.90;;;;;;;29.71;40.45;95665.53;5010186;28;20274;-67
2022/07/15 08:43:01;;;;;;;1999.90;999.90;;;;;;;28.69;44.02;95656.47;5009961;28;20192;-67
2022/07/15 08:45:27;;;;;;;1999.90;999.90;;;;;;;30.09;41.33;95656.00;5010126;28;20187;-67
2022/07/15 08:47:53;;;;;;;1999.90;999.90;;;;;;;29.97;41.31;95657.38;5009518;28;20219;-67
2022/07/15 08:50:19;;;;;;;1999.90;999.90;;;;;;;30.47;40.97;95652.09;5009896;28;20176;-67
2022/07/15 08:52:46;;;;;;;1999.90;999.90;;;;;;;32.20;37.21;95648.03;5010179;28;20183;-67
2022/07/15 08:55:13;;;;;;;1999.90;999.90;;;;;;;32.02;36.17;95657.34;5010143;28;20183;-67
2022/07/15 08:57:38;;;;;;;1999.90;999.90;;;;;;;32.12;37.49;95652.78;4993535;28;20191;-67
2022/07/15 09:00:10;;;;;;;1999.90;999.90;;;;;;;30.18;38.97;95658.50;5009415;28;20258;-66
2022/07/15 09:02:37;;;;;;;1999.90;999.90;;;;;;;30.16;40.89;95666.72;5010073;28;20188;-66
2022/07/15 09:05:18;;;;;;;1999.90;999.90;;;;;;;32.08;36.72;95649.50;5010061;28;20190;-67
2022/07/15 09:07:57;;;;;;;1999.90;999.90;;;;;;;30.63;38.82;95659.63;5009477;28;20270;-67
2022/07/15 09:10:39;;;;;;;1999.90;999.90;;;;;;;30.01;40.53;95657.88;4993006;28;20211;-67
2022/07/15 09:13:05;;;;;;;1999.90;999.90;;;;;;;31.33;37.44;95653.72;5010154;28;20293;-67
2022/07/15 09:15:40;;;;;;;1999.90;999.90;;;;;;;30.60;39.36;95652.97;5009429;28;20188;-67
2022/07/15 09:18:17;;;;;;;1999.90;999.90;;;;;;;31.19;37.48;95643.59;4993418;28;20191;-67
2022/07/15 09:20:44;;;;;;;1999.90;999.90;;;;;;;31.17;38.73;95646.16;5009601;28;20195;-66
2022/07/15 09:23:11;;;;;;;1999.90;999.90;;;;;;;32.45;35.92;95649.41;5009480;28;20188;-66
2022/07/15 09:25:39;;;;;;;1999.90;999.90;;;;;;;32.52;34.66;95645.94;5009340;28;20194;-67
2022/07/15 09:28:07;;;;;;;1999.90;999.90;;;;;;;31.62;36.21;95641.47;5009853;28;20207;-66
2022/07/15 09:33:36;;;;;;;1999.90;999.90;;;;;;;32.07;35.41;95648.00;4994676;28;20206;-67
2022/07/15 09:36:20;;;;;;;1999.90;999.90;;;;;;;32.07;35.58;95650.81;5009382;28;20238;-66
2022/07/15 09:38:53;;;;;;;1999.90;999.90;;;;;;;32.47;35.52;95640.38;4993312;28;20195;-66
2022/07/15 09:41:18;;;;;;;1999.90;999.90;;;;;;;32.32;34.75;95652.22;4992935;28;20184;-66
2022/07/15 09:43:56;;;;;;;1999.90;999.90;;;;;;;32.01;35.39;95649.41;5009070;28;20187;-67
2022/07/15 09:46:23;;;;;;;1999.90;999.90;;;;;;;32.11;35.66;95645.63;5009210;28;20203;-67
2022/07/15 09:48:51;;;;;;;1999.90;999.90;;;;;;;32.66;34.60;95653.16;5009883;28;20226;-67
2022/07/15 09:51:16;;;;;;;1999.90;999.90;;;;;;;33.20;35.27;95644.91;5009163;28;20195;-67
2022/07/15 09:53:43;;;;;;;1999.90;999.90;;;;;;;31.66;35.35;95650.41;5008791;28;20184;-67
2022/07/15 09:56:12;;;;;;;1999.90;999.90;;;;;;;31.29;38.85;95647.59;5009454;28;20184;-67
2022/07/15 09:58:39;;;;;;;1999.90;999.90;;;;;;;32.21;35.91;95646.75;5008779;28;20308;-66
2022/07/15 10:01:09;;;;;;;1999.90;999.90;;;;;;;32.55;34.28;95647.69;5008766;28;20188;-66
2022/07/15 10:03:35;;;;;;;1999.90;999.90;;;;;;;32.07;34.61;95636.69;5008488;28;20259;-67
2022/07/15 10:06:02;;;;;;;1999.90;999.90;;;;;;;32.78;33.63;95640.31;5008811;28;20188;-67
2022/07/15 10:08:29;;;;;;;1999.90;999.90;;;;;;;33.00;34.08;95639.88;5009125;28;20211;-68
2022/07/15 10:10:55;;;;;;;1999.90;999.90;;;;;;;33.55;32.67;95635.94;5010986;28;20215;-67
2022/07/15 10:13:43;;;;;;;1999.90;999.90;;;;;;;33.86;32.10;95633.44;5012273;28;20270;-67
2022/07/15 10:16:41;;;;;;;1999.90;999.90;;;;;;;33.29;34.29;95633.09;4996311;28;20215;-67
2022/07/15 10:19:30;;;;;;;1999.90;999.90;;;;;;;34.31;31.75;95631.03;4995902;28;20180;-67
2022/07/15 10:22:20;;;;;;;1999.90;999.90;;;;;;;34.63;31.32;95628.69;4996146;28;20187;-67
2022/07/15 10:25:13;;;;;;;1999.90;999.90;;;;;;;35.00;30.64;95633.88;5012538;28;20176;-67
2022/07/15 10:28:00;;;;;;;1999.90;999.90;;;;;;;35.64;30.45;95626.03;4996142;28;20292;-67
2022/07/15 10:30:26;;;;;;;1999.90;999.90;;;;;;;34.76;29.44;95631.41;4995723;28;20179;-67
2022/07/15 10:33:04;;;;;;;1999.90;999.90;;;;;;;34.19;31.10;95629.81;5011825;28;20283;-67
2022/07/15 10:36:03;;;;;;;1999.90;999.90;;;;;;;32.68;31.97;95632.81;5012518;28;20202;-67
2022/07/15 10:38:37;;;;;;;1999.90;999.90;;;;;;;33.32;31.57;95626.34;5011838;28;20195;-66
2022/07/15 10:41:09;;;;;;;1999.90;999.90;;;;;;;33.97;31.11;95624.69;5011974;28;20179;-67
2022/07/15 10:43:41;;;;;;;1999.90;999.90;;;;;;;34.10;30.12;95628.22;4995551;28;20199;-66
2022/07/15 10:46:15;;;;;;;1999.90;999.90;;;;;;;33.16;31.97;95618.97;5011859;28;20188;-66
2022/07/15 10:48:45;;;;;;;1999.90;999.90;;;;;;;34.40;30.16;95617.13;5011688;28;20187;-67
2022/07/15 10:51:12;;;;;;;1999.90;999.90;;;;;;;34.85;29.28;95614.63;5011817;28;20190;-67
2022/07/15 10:53:46;;;;;;;1999.90;999.90;;;;;;;34.63;30.43;95623.00;5011596;28;20216;-67
2022/07/15 10:56:29;;;;;;;1999.90;999.90;;;;;;;35.40;29.65;95609.47;5011395;28;20244;-67